Time;durP1;ratioP1;P1;durP2;ratioP2;P2;SDS_P1;SDS_P2;PMS_P1;PMS_P2;Temp;Humidity;BMP_temperature;BMP_pressure;BME280_temperature;BME280_humidity;BME280_pressure;Samples;Min_cycle;Max_cycle;Signal;HPM_P1;HPM_P2
2022/10/17 00:00:16;;;;;;;12.15;4.03;;;;;;;;;;5046186;28;20041;-63
2022/10/17 00:02:42;;;;;;;8.45;4.38;;;;;;;;;;5045984;28;20084;-63
2022/10/17 00:05:07;;;;;;;8.07;5.05;;;;;;;;;;5046405;28;20030;-63
2022/10/17 00:07:32;;;;;;;9.48;4.65;;;;;;;;;;5046071;28;20029;-62
2022/10/17 00:09:58;;;;;;;8.80;4.15;;;;;;;;;;5044942;28;20916;-63
2022/10/17 00:12:23;;;;;;;12.73;4.80;;;;;;;;;;5043957;28;20028;-63
2022/10/17 00:14:48;;;;;;;6.78;4.40;;;;;;;;;;5045330;28;20037;-62
2022/10/17 00:17:14;;;;;;;8.20;4.53;;;;;;;;;;5045460;28;20665;-63
2022/10/17 00:19:41;;;;;;;8.45;4.90;;;;;;;;;;5045513;28;20029;-62
2022/10/17 00:22:06;;;;;;;6.40;4.13;;;;;;;;;;5049159;28;20116;-62
2022/10/17 00:24:31;;;;;;;10.38;4.80;;;;;;;;;;5049668;28;20108;-62
2022/10/17 00:26:57;;;;;;;7.07;4.25;;;;;;;;;;5049299;28;20037;-63
2022/10/17 00:29:22;;;;;;;7.50;4.63;;;;;;;;;;5049229;28;20048;-63
2022/10/17 00:31:47;;;;;;;7.13;3.90;;;;;;;;;;5048729;28;20568;-63
2022/10/17 00:34:13;;;;;;;9.25;4.35;;;;;;;;;;5049294;28;20116;-62
2022/10/17 00:36:38;;;;;;;6.95;4.30;;;;;;;;;;5049536;28;20100;-63
2022/10/17 00:39:03;;;;;;;11.63;4.80;;;;;;;;;;5048379;28;20049;-62
2022/10/17 00:41:31;;;;;;;6.45;3.97;;;;;;;;;;5049341;28;20107;-63
2022/10/17 00:44:02;;;;;;;7.50;4.75;;;;;;;;;;5048465;28;20120;-62
2022/10/17 00:46:30;;;;;;;7.53;4.28;;;;;;;;;;5049102;28;20095;-62
2022/10/17 00:48:57;;;;;;;11.68;5.28;;;;;;;;;;5048847;28;20530;-63
2022/10/17 00:51:44;;;;;;;10.82;4.97;;;;;;;;;;5049077;28;20025;-62
2022/10/17 00:54:11;;;;;;;9.63;4.25;;;;;;;;;;5048942;28;20033;-63
2022/10/17 00:56:39;;;;;;;7.60;4.40;;;;;;;;;;5048326;28;20033;-62
2022/10/17 00:59:05;;;;;;;9.93;4.95;;;;;;;;;;5047721;28;20048;-63
2022/10/17 01:01:30;;;;;;;8.35;4.43;;;;;;;;;;5048831;28;20117;-62
2022/10/17 01:03:55;;;;;;;8.48;4.78;;;;;;;;;;5048471;28;20107;-63
2022/10/17 01:06:21;;;;;;;8.40;4.53;;;;;;;;;;5049357;28;20028;-63
2022/10/17 01:08:47;;;;;;;8.70;4.45;;;;;;;;;;5048423;28;20041;-63
2022/10/17 01:11:49;;;;;;;11.48;4.88;;;;;;;;;;5047755;28;20044;-63
2022/10/17 01:14:22;;;;;;;8.25;5.00;;;;;;;;;;5026075;28;20551;-62
2022/10/17 01:17:00;;;;;;;8.40;4.47;;;;;;;;;;5028721;28;20041;-63
2022/10/17 01:19:40;;;;;;;8.57;4.97;;;;;;;;;;5028616;28;20488;-63
2022/10/17 01:22:25;;;;;;;9.45;5.10;;;;;;;;;;5028521;28;20036;-63
2022/10/17 01:25:09;;;;;;;10.40;4.60;;;;;;;;;;5028929;28;20022;-62
2022/10/17 01:27:54;;;;;;;6.97;4.32;;;;;;;;;;5028594;28;20037;-63
2022/10/17 01:30:41;;;;;;;8.18;4.65;;;;;;;;;;5038394;28;20040;-62
2022/10/17 01:33:21;;;;;;;12.30;5.22;;;;;;;;;;5047720;28;20048;-63
2022/10/17 01:35:51;;;;;;;7.05;4.88;;;;;;;;;;5048204;28;20064;-62
2022/10/17 01:38:22;;;;;;;9.73;4.90;;;;;;;;;;5048008;28;20037;-62
2022/10/17 01:40:59;;;;;;;12.85;4.78;;;;;;;;;;5046931;28;20033;-63
2022/10/17 01:43:32;;;;;;;8.63;5.20;;;;;;;;;;5047765;28;20546;-62
2022/10/17 01:46:01;;;;;;;11.27;4.80;;;;;;;;;;5047377;28;20025;-63
2022/10/17 01:48:34;;;;;;;9.30;4.82;;;;;;;;;;5048061;28;20028;-62
2022/10/17 01:51:06;;;;;;;8.95;4.82;;;;;;;;;;5047849;28;20151;-62
2022/10/17 01:53:35;;;;;;;9.93;5.45;;;;;;;;;;5047373;28;20040;-63
2022/10/17 01:56:03;;;;;;;10.80;4.90;;;;;;;;;;5044430;28;20041;-63
2022/10/17 01:58:35;;;;;;;9.63;4.88;;;;;;;;;;5027898;28;20034;-63
2022/10/17 02:01:03;;;;;;;9.32;4.28;;;;;;;;;;5027630;28;20025;-62
2022/10/17 02:03:31;;;;;;;6.97;4.32;;;;;;;;;;5027869;28;20040;-62
2022/10/17 02:05:56;;;;;;;8.57;4.80;;;;;;;;;;5026121;28;20549;-63
2022/10/17 02:08:26;;;;;;;8.02;4.35;;;;;;;;;;5027501;28;20041;-62
2022/10/17 02:11:04;;;;;;;10.65;5.05;;;;;;;;;;5026162;28;20048;-62
2022/10/17 02:13:59;;;;;;;10.52;4.28;;;;;;;;;;5028072;28;20087;-63
2022/10/17 02:16:53;;;;;;;10.25;5.15;;;;;;;;;;5059291;28;20036;-63
2022/10/17 02:19:18;;;;;;;;;;;;;;;;;;5067978;28;20062;-62
2022/10/17 02:21:47;;;;;;;11.17;4.60;;;;;;;;;;5067349;28;20383;-63
2022/10/17 02:24:15;;;;;;;8.80;4.88;;;;;;;;;;5043849;28;20122;-62
2022/10/17 02:26:52;;;;;;;8.07;4.78;;;;;;;;;;5047397;28;20041;-63
2022/10/17 02:29:25;;;;;;;7.47;4.82;;;;;;;;;;5045771;28;20037;-62
2022/10/17 02:31:58;;;;;;;8.23;4.50;;;;;;;;;;5045226;28;20068;-63
2022/10/17 02:34:28;;;;;;;7.53;4.25;;;;;;;;;;5047155;28;20033;-63
2022/10/17 02:37:00;;;;;;;7.85;4.40;;;;;;;;;;5047061;28;20086;-62
2022/10/17 02:39:28;;;;;;;8.02;4.45;;;;;;;;;;5047018;28;20589;-62
2022/10/17 02:41:55;;;;;;;8.20;5.00;;;;;;;;;;5045672;28;20417;-63
2022/10/17 02:44:22;;;;;;;9.20;5.68;;;;;;;;;;5045681;28;20045;-63
2022/10/17 02:46:54;;;;;;;10.30;5.05;;;;;;;;;;5046665;28;20127;-63
2022/10/17 02:49:28;;;;;;;11.20;5.25;;;;;;;;;;5045196;28;20044;-63
2022/10/17 02:52:14;;;;;;;12.13;5.75;;;;;;;;;;5028083;28;20040;-63
2022/10/17 02:54:44;;;;;;;7.90;4.50;;;;;;;;;;5027127;28;20030;-63
2022/10/17 02:57:18;;;;;;;9.35;5.32;;;;;;;;;;5025291;28;20060;-63
2022/10/17 02:59:44;;;;;;;;;;;;;;;;;;5027336;28;20057;-63
2022/10/17 03:02:10;;;;;;;8.00;4.63;;;;;;;;;;5034748;28;20638;-63
2022/10/17 03:04:35;;;;;;;10.40;4.82;;;;;;;;;;5042792;28;20039;-63
2022/10/17 03:07:01;;;;;;;10.05;4.68;;;;;;;;;;5045189;28;20040;-62
2022/10/17 03:09:26;;;;;;;8.45;4.53;;;;;;;;;;5046567;28;20052;-63
2022/10/17 03:11:51;;;;;;;9.23;5.20;;;;;;;;;;5046546;28;20037;-62
2022/10/17 03:14:17;;;;;;;8.82;4.90;;;;;;;;;;5046264;28;20063;-63
2022/10/17 03:16:42;;;;;;;11.10;4.50;;;;;;;;;;5046720;28;20047;-63
2022/10/17 03:19:08;;;;;;;9.23;4.80;;;;;;;;;;5045393;28;20032;-62
2022/10/17 03:21:35;;;;;;;13.88;4.85;;;;;;;;;;5056653;28;20154;-62
2022/10/17 03:24:01;;;;;;;9.55;5.53;;;;;;;;;;5066550;28;20171;-63
2022/10/17 03:26:28;;;;;;;8.93;4.78;;;;;;;;;;5066472;28;20480;-63
2022/10/17 03:28:53;;;;;;;8.07;4.82;;;;;;;;;;5048731;28;20033;-63
2022/10/17 03:31:19;;;;;;;10.23;4.85;;;;;;;;;;5045150;28;20043;-63
2022/10/17 03:33:44;;;;;;;10.50;5.13;;;;;;;;;;5045638;28;20029;-63
2022/10/17 03:36:13;;;;;;;10.52;5.10;;;;;;;;;;5046276;28;20152;-63
2022/10/17 03:38:39;;;;;;;7.78;4.45;;;;;;;;;;5046352;28;20103;-62
2022/10/17 03:41:05;;;;;;;11.10;5.28;;;;;;;;;;5045810;28;20522;-63
2022/10/17 03:43:31;;;;;;;8.30;5.10;;;;;;;;;;5045626;28;20607;-63
2022/10/17 03:45:57;;;;;;;8.20;4.90;;;;;;;;;;5044945;28;20025;-63
2022/10/17 03:48:23;;;;;;;8.68;4.97;;;;;;;;;;5046632;28;20103;-63
2022/10/17 03:50:49;;;;;;;9.52;4.50;;;;;;;;;;5045777;28;20487;-63
2022/10/17 03:53:14;;;;;;;7.82;4.97;;;;;;;;;;5046115;28;20254;-62
2022/10/17 03:55:39;;;;;;;10.32;4.75;;;;;;;;;;5048735;28;20510;-63
2022/10/17 03:58:05;;;;;;;8.40;4.55;;;;;;;;;;5049736;28;20041;-63
2022/10/17 04:00:30;;;;;;;12.65;4.93;;;;;;;;;;5050321;28;20016;-63
2022/10/17 04:02:57;;;;;;;6.47;4.63;;;;;;;;;;5049643;28;20184;-63
2022/10/17 04:05:22;;;;;;;9.77;4.57;;;;;;;;;;5049742;28;20056;-63
2022/10/17 04:07:48;;;;;;;8.00;4.38;;;;;;;;;;5049526;28;20410;-63
2022/10/17 04:10:13;;;;;;;9.18;4.90;;;;;;;;;;5049687;28;20115;-63
2022/10/17 04:12:38;;;;;;;9.93;4.53;;;;;;;;;;5042369;28;20398;-62
2022/10/17 04:15:04;;;;;;;12.07;4.68;;;;;;;;;;5049551;28;20037;-62
2022/10/17 04:17:30;;;;;;;6.95;4.65;;;;;;;;;;5049380;28;20037;-63
2022/10/17 04:19:55;;;;;;;8.23;4.63;;;;;;;;;;5049536;28;20108;-62
2022/10/17 04:22:20;;;;;;;8.45;4.20;;;;;;;;;;5065280;28;20033;-62
2022/10/17 04:24:46;;;;;;;11.32;4.60;;;;;;;;;;5070171;28;20024;-62
2022/10/17 04:27:11;;;;;;;8.80;4.70;;;;;;;;;;5069014;28;20178;-62
2022/10/17 04:29:36;;;;;;;7.28;4.32;;;;;;;;;;5069604;28;20680;-63
2022/10/17 04:32:02;;;;;;;10.02;4.85;;;;;;;;;;5068545;28;20398;-62
2022/10/17 04:34:27;;;;;;;12.63;5.18;;;;;;;;;;5069701;28;20044;-63
2022/10/17 04:36:53;;;;;;;9.85;4.40;;;;;;;;;;5068861;28;20028;-62
2022/10/17 04:39:18;;;;;;;9.55;4.88;;;;;;;;;;5062500;28;20450;-63
2022/10/17 04:41:43;;;;;;;8.65;4.45;;;;;;;;;;5049036;28;20033;-63
2022/10/17 04:44:09;;;;;;;7.38;4.10;;;;;;;;;;5046743;28;20148;-63
2022/10/17 04:46:35;;;;;;;9.95;4.60;;;;;;;;;;5048833;28;20064;-63
2022/10/17 04:49:00;;;;;;;8.38;4.70;;;;;;;;;;5049006;28;20025;-63
2022/10/17 04:51:26;;;;;;;9.15;4.50;;;;;;;;;;5047992;28;20742;-63
2022/10/17 04:53:51;;;;;;;7.65;4.32;;;;;;;;;;5048999;28;20516;-63
2022/10/17 04:56:20;;;;;;;6.70;4.50;;;;;;;;;;5044645;28;20037;-63
2022/10/17 04:58:46;;;;;;;8.98;4.35;;;;;;;;;;5048086;28;20044;-63
2022/10/17 05:01:17;;;;;;;6.95;4.00;;;;;;;;;;5047344;28;20040;-63
2022/10/17 05:03:43;;;;;;;7.57;4.18;;;;;;;;;;5047918;28;20033;-63
2022/10/17 05:06:11;;;;;;;7.97;4.35;;;;;;;;;;5046878;28;20557;-63
2022/10/17 05:08:37;;;;;;;8.77;4.60;;;;;;;;;;5048751;28;20037;-62
2022/10/17 05:11:03;;;;;;;11.70;4.82;;;;;;;;;;5047905;28;20043;-62
2022/10/17 05:13:28;;;;;;;8.27;4.63;;;;;;;;;;5048553;28;20515;-62
2022/10/17 05:16:00;;;;;;;7.15;4.60;;;;;;;;;;5047578;28;20079;-62
2022/10/17 05:18:27;;;;;;;8.88;4.32;;;;;;;;;;5048657;28;20082;-62
2022/10/17 05:20:52;;;;;;;7.15;4.70;;;;;;;;;;5068628;28;20068;-62
2022/10/17 05:23:17;;;;;;;7.50;4.55;;;;;;;;;;5068114;28;20048;-63
2022/10/17 05:25:43;;;;;;;9.77;4.78;;;;;;;;;;5066432;28;20037;-63
2022/10/17 05:28:08;;;;;;;8.93;4.22;;;;;;;;;;5068120;28;20482;-63
2022/10/17 05:30:34;;;;;;;8.75;4.45;;;;;;;;;;5068637;28;20102;-62
2022/10/17 05:33:00;;;;;;;6.45;4.43;;;;;;;;;;5067327;28;20036;-63
2022/10/17 05:35:25;;;;;;;7.07;3.83;;;;;;;;;;5068090;28;20058;-62
2022/10/17 05:37:50;;;;;;;7.55;4.05;;;;;;;;;;5067926;28;20043;-62
2022/10/17 05:40:16;;;;;;;5.78;4.30;;;;;;;;;;5052877;28;20033;-62
2022/10/17 05:42:47;;;;;;;9.30;4.20;;;;;;;;;;5046716;28;20145;-63
2022/10/17 05:45:14;;;;;;;8.93;4.35;;;;;;;;;;5047843;28;20481;-63
2022/10/17 05:47:39;;;;;;;7.63;4.45;;;;;;;;;;5047877;28;20044;-63
2022/10/17 05:50:05;;;;;;;9.38;4.75;;;;;;;;;;5047170;28;20032;-63
2022/10/17 05:52:31;;;;;;;7.95;4.13;;;;;;;;;;5062083;28;20176;-62
2022/10/17 05:54:56;;;;;;;7.20;4.70;;;;;;;;;;5067815;28;20490;-62
2022/10/17 05:57:24;;;;;;;8.48;4.78;;;;;;;;;;5067404;28;20568;-62
2022/10/17 05:59:49;;;;;;;12.50;4.90;;;;;;;;;;5067620;28;20124;-62
2022/10/17 06:02:15;;;;;;;12.02;4.97;;;;;;;;;;5067056;28;20139;-63
2022/10/17 06:04:44;;;;;;;8.60;5.30;;;;;;;;;;5067421;28;20041;-62
2022/10/17 06:07:09;;;;;;;6.80;4.40;;;;;;;;;;5064106;28;20039;-63
2022/10/17 06:09:35;;;;;;;7.93;4.25;;;;;;;;;;5046426;28;20040;-62
2022/10/17 06:12:00;;;;;;;9.50;4.70;;;;;;;;;;5047014;28;20053;-62
2022/10/17 06:14:25;;;;;;;6.55;4.20;;;;;;;;;;5047212;28;20399;-62
2022/10/17 06:16:50;;;;;;;11.93;4.47;;;;;;;;;;5046923;28;20037;-62
2022/10/17 06:19:16;;;;;;;8.82;4.82;;;;;;;;;;5046202;28;20114;-63
2022/10/17 06:21:41;;;;;;;6.75;4.50;;;;;;;;;;5046380;28;20456;-62
2022/10/17 06:24:06;;;;;;;7.72;4.30;;;;;;;;;;5046872;28;20525;-62
2022/10/17 06:26:32;;;;;;;6.95;4.32;;;;;;;;;;5046513;28;20041;-62
2022/10/17 06:28:57;;;;;;;7.93;4.50;;;;;;;;;;5047525;28;20553;-62
2022/10/17 06:31:23;;;;;;;9.00;4.32;;;;;;;;;;5046238;28;20060;-62
2022/10/17 06:33:48;;;;;;;10.80;4.75;;;;;;;;;;5046081;28;20037;-63
2022/10/17 06:36:14;;;;;;;9.20;4.55;;;;;;;;;;5046864;28;20577;-63
2022/10/17 06:38:39;;;;;;;11.00;5.60;;;;;;;;;;5046505;28;20029;-63
2022/10/17 06:41:08;;;;;;;9.77;5.25;;;;;;;;;;5047120;28;20112;-63
2022/10/17 06:43:37;;;;;;;13.63;5.45;;;;;;;;;;5045506;28;20194;-63
2022/10/17 06:46:03;;;;;;;8.68;6.07;;;;;;;;;;5046497;28;20517;-63
2022/10/17 06:48:29;;;;;;;11.48;5.70;;;;;;;;;;5046280;28;20060;-63
2022/10/17 06:51:01;;;;;;;8.63;5.13;;;;;;;;;;5046908;28;20048;-63
2022/10/17 06:53:33;;;;;;;8.10;5.00;;;;;;;;;;5045156;28;20514;-62
2022/10/17 06:56:03;;;;;;;10.93;4.75;;;;;;;;;;5045479;28;20036;-63
2022/10/17 06:58:34;;;;;;;12.75;5.43;;;;;;;;;;5046925;28;20052;-63
2022/10/17 07:01:00;;;;;;;10.20;5.03;;;;;;;;;;5043065;28;20046;-63
2022/10/17 07:03:26;;;;;;;8.27;5.20;;;;;;;;;;5047213;28;20033;-63
2022/10/17 07:05:52;;;;;;;9.60;5.25;;;;;;;;;;5046327;28;20383;-62
2022/10/17 07:08:18;;;;;;;9.02;5.32;;;;;;;;;;5045315;28;20040;-63
2022/10/17 07:10:43;;;;;;;10.50;6.35;;;;;;;;;;5045059;28;20064;-63
2022/10/17 07:13:08;;;;;;;9.70;5.88;;;;;;;;;;5045168;28;20040;-63
2022/10/17 07:15:35;;;;;;;11.52;5.90;;;;;;;;;;5046219;28;20064;-63
2022/10/17 07:18:00;;;;;;;10.68;6.47;;;;;;;;;;5046354;28;20136;-63
2022/10/17 07:20:25;;;;;;;13.02;6.07;;;;;;;;;;5046341;28;20265;-63
2022/10/17 07:22:51;;;;;;;11.55;5.72;;;;;;;;;;5043994;28;20060;-63
2022/10/17 07:25:16;;;;;;;11.60;5.85;;;;;;;;;;5044408;28;20041;-63
2022/10/17 07:27:41;;;;;;;11.55;5.70;;;;;;;;;;5046762;28;20029;-63
2022/10/17 07:30:08;;;;;;;14.60;6.65;;;;;;;;;;5046372;28;20049;-63
2022/10/17 07:32:33;;;;;;;12.90;5.63;;;;;;;;;;5049085;28;20037;-63
2022/10/17 07:34:58;;;;;;;13.75;6.18;;;;;;;;;;5049931;28;20041;-63
2022/10/17 07:37:23;;;;;;;10.27;5.85;;;;;;;;;;5049828;28;20108;-63
2022/10/17 07:39:49;;;;;;;9.93;6.40;;;;;;;;;;5050624;28;20063;-62
2022/10/17 07:42:14;;;;;;;9.20;5.28;;;;;;;;;;5048750;28;20048;-63
2022/10/17 07:44:39;;;;;;;12.38;6.25;;;;;;;;;;5050774;28;20081;-63
2022/10/17 07:47:05;;;;;;;10.82;5.97;;;;;;;;;;5047524;28;20051;-63
2022/10/17 07:49:30;;;;;;;10.50;6.00;;;;;;;;;;5045932;28;20515;-63
2022/10/17 07:51:55;;;;;;;8.70;5.95;;;;;;;;;;5045817;28;20066;-63
2022/10/17 07:54:21;;;;;;;15.77;6.30;;;;;;;;;;5029070;28;20036;-63
2022/10/17 07:56:49;;;;;;;10.57;5.70;;;;;;;;;;5028381;28;20037;-63
2022/10/17 07:59:16;;;;;;;13.35;5.68;;;;;;;;;;5029465;28;20037;-63
2022/10/17 08:01:41;;;;;;;11.68;6.30;;;;;;;;;;5030044;28;20511;-63
2022/10/17 08:04:06;;;;;;;10.68;6.15;;;;;;;;;;5029702;28;20025;-63
2022/10/17 08:06:32;;;;;;;14.82;6.50;;;;;;;;;;5047750;28;20055;-63
2022/10/17 08:08:58;;;;;;;15.35;6.32;;;;;;;;;;5048803;28;20045;-63
2022/10/17 08:11:24;;;;;;;13.52;6.70;;;;;;;;;;5047185;28;20100;-63
2022/10/17 08:13:49;;;;;;;13.10;6.43;;;;;;;;;;5048353;28;20045;-62
2022/10/17 08:16:14;;;;;;;12.88;6.18;;;;;;;;;;5049040;28;20037;-63
2022/10/17 08:18:41;;;;;;;14.50;6.07;;;;;;;;;;5047371;28;20044;-63
2022/10/17 08:21:08;;;;;;;15.00;6.30;;;;;;;;;;5048045;28;20062;-63
2022/10/17 08:23:34;;;;;;;14.30;6.65;;;;;;;;;;5048227;28;20033;-63
2022/10/17 08:26:01;;;;;;;12.35;6.38;;;;;;;;;;5048508;28;20100;-63
2022/10/17 08:28:27;;;;;;;11.23;6.47;;;;;;;;;;5047214;28;20426;-63
2022/10/17 08:30:52;;;;;;;11.23;6.93;;;;;;;;;;5048941;28;20522;-63
2022/10/17 08:33:18;;;;;;;13.75;6.72;;;;;;;;;;5048029;28;20131;-63
2022/10/17 08:35:43;;;;;;;14.13;6.70;;;;;;;;;;5048804;28;20063;-63
2022/10/17 08:38:08;;;;;;;11.48;6.32;;;;;;;;;;5047964;28;20037;-63
2022/10/17 08:40:34;;;;;;;14.00;6.07;;;;;;;;;;5047901;28;20121;-63
2022/10/17 08:43:32;;;;;;;12.52;6.38;;;;;;;;;;5047649;28;20049;-63
2022/10/17 08:46:03;;;;;;;10.27;5.55;;;;;;;;;;5045406;28;20049;-63
2022/10/17 08:48:35;;;;;;;12.88;6.28;;;;;;;;;;5042862;28;20718;-63
2022/10/17 08:51:16;;;;;;;12.07;5.85;;;;;;;;;;5042466;28;20045;-63
2022/10/17 08:54:04;;;;;;;10.38;6.07;;;;;;;;;;5046237;28;20043;-63
2022/10/17 08:56:41;;;;;;;10.70;5.95;;;;;;;;;;5043889;28;20449;-63
2022/10/17 08:59:20;;;;;;;12.35;6.15;;;;;;;;;;5046896;28;20060;-63
2022/10/17 09:02:04;;;;;;;15.57;6.07;;;;;;;;;;5048299;28;20033;-62
2022/10/17 09:04:48;;;;;;;11.45;5.60;;;;;;;;;;5048154;28;20038;-63
2022/10/17 09:07:14;;;;;;;11.48;5.28;;;;;;;;;;5042330;28;20041;-63
2022/10/17 09:09:47;;;;;;;9.00;5.78;;;;;;;;;;5048288;28;20028;-63
2022/10/17 09:12:37;;;;;;;10.70;5.85;;;;;;;;;;5047901;28;20062;-63
2022/10/17 09:15:21;;;;;;;9.48;5.43;;;;;;;;;;5043971;28;20447;-63
2022/10/17 09:17:59;;;;;;;14.85;6.18;;;;;;;;;;5048027;28;20037;-63
2022/10/17 09:20:30;;;;;;;10.18;6.00;;;;;;;;;;5047944;28;20037;-63
2022/10/17 09:23:09;;;;;;;12.52;5.70;;;;;;;;;;5044342;28;20039;-63
2022/10/17 09:25:43;;;;;;;13.38;6.25;;;;;;;;;;5039346;28;20068;-62
2022/10/17 09:28:17;;;;;;;;;;;;;;;;;;5044397;28;20571;-63
2022/10/17 09:30:46;;;;;;;12.85;6.10;;;;;;;;;;5046122;28;19905;-62
2022/10/17 09:33:11;;;;;;;11.00;6.07;;;;;;;;;;5043396;28;20029;-63
2022/10/17 09:35:38;;;;;;;10.93;6.32;;;;;;;;;;5046441;28;20086;-63
2022/10/17 09:38:03;;;;;;;11.77;6.40;;;;;;;;;;5040491;28;20044;-63
2022/10/17 09:40:33;;;;;;;12.10;7.15;;;;;;;;;;5046130;28;20037;-62
2022/10/17 09:43:01;;;;;;;13.48;6.88;;;;;;;;;;5044747;28;20041;-62
2022/10/17 09:45:32;;;;;;;12.52;7.32;;;;;;;;;;5046088;28;20017;-62
2022/10/17 09:48:09;;;;;;;15.48;7.70;;;;;;;;;;5046326;28;20090;-63
2022/10/17 09:50:35;;;;;;;10.95;7.05;;;;;;;;;;5045965;28;20693;-63
2022/10/17 09:53:13;;;;;;;15.93;7.13;;;;;;;;;;5046410;28;20055;-62
2022/10/17 09:55:43;;;;;;;12.95;6.25;;;;;;;;;;5046171;28;20063;-62
2022/10/17 09:58:10;;;;;;;9.80;6.03;;;;;;;;;;5045435;28;20048;-63
2022/10/17 10:00:44;;;;;;;10.30;6.03;;;;;;;;;;5039143;28;20036;-62
2022/10/17 10:03:15;;;;;;;8.77;5.13;;;;;;;;;;5045952;28;20041;-62
2022/10/17 10:05:42;;;;;;;11.60;5.80;;;;;;;;;;5044987;28;20033;-62
2022/10/17 10:08:16;;;;;;;9.38;5.82;;;;;;;;;;5045846;28;20040;-63
2022/10/17 10:10:43;;;;;;;9.32;5.63;;;;;;;;;;5044125;28;20052;-63
2022/10/17 10:13:14;;;;;;;8.35;5.38;;;;;;;;;;5051712;28;20032;-62
2022/10/17 10:15:45;;;;;;;8.82;5.35;;;;;;;;;;5052786;28;20148;-63
2022/10/17 10:18:35;;;;;;;8.35;5.07;;;;;;;;;;5046629;28;20035;-63
2022/10/17 10:21:11;;;;;;;13.52;5.85;;;;;;;;;;5044499;28;20057;-63
2022/10/17 10:23:39;;;;;;;8.93;5.45;;;;;;;;;;5045540;28;20064;-63
2022/10/17 10:26:42;;;;;;;11.50;5.60;;;;;;;;;;5058773;28;20187;-63
2022/10/17 10:29:29;;;;;;;14.45;7.47;;;;;;;;;;5054119;28;20040;-63
2022/10/17 10:31:57;;;;;;;9.32;5.70;;;;;;;;;;5065169;28;20029;-63
2022/10/17 10:34:27;;;;;;;12.18;5.78;;;;;;;;;;5066273;28;20043;-63
2022/10/17 10:37:05;;;;;;;10.68;5.85;;;;;;;;;;5066532;28;20397;-63
2022/10/17 10:39:36;;;;;;;11.65;6.18;;;;;;;;;;5046431;28;20041;-63
2022/10/17 10:42:04;;;;;;;12.05;6.05;;;;;;;;;;5045084;28;20057;-63
2022/10/17 10:44:31;;;;;;;9.65;5.72;;;;;;;;;;5044250;28;20120;-63
2022/10/17 10:47:27;;;;;;;9.45;5.93;;;;;;;;;;5045935;28;20186;-63
2022/10/17 10:50:17;;;;;;;13.48;6.13;;;;;;;;;;5041905;28;20029;-63
2022/10/17 10:52:49;;;;;;;10.35;5.82;;;;;;;;;;5041748;28;20132;-62
2022/10/17 10:55:22;;;;;;;14.43;6.53;;;;;;;;;;5038442;28;20057;-63
2022/10/17 10:57:51;;;;;;;19.30;6.18;;;;;;;;;;5037841;28;20303;-62
2022/10/17 11:00:23;;;;;;;10.07;5.57;;;;;;;;;;5045820;28;20025;-63
2022/10/17 11:02:57;;;;;;;14.07;5.45;;;;;;;;;;5046310;28;20033;-63
2022/10/17 11:05:34;;;;;;;10.27;5.68;;;;;;;;;;5044955;28;20088;-63
2022/10/17 11:08:10;;;;;;;13.85;6.47;;;;;;;;;;5045283;28;20041;-63
2022/10/17 11:10:54;;;;;;;12.05;5.78;;;;;;;;;;5045269;28;20032;-63
2022/10/17 11:13:27;;;;;;;9.88;6.40;;;;;;;;;;5045757;28;20040;-62
2022/10/17 11:16:18;;;;;;;12.95;6.32;;;;;;;;;;5046075;28;20025;-63
2022/10/17 11:19:17;;;;;;;8.05;5.82;;;;;;;;;;5045088;28;20041;-63
2022/10/17 11:21:47;;;;;;;10.10;5.65;;;;;;;;;;5041403;28;20557;-63
2022/10/17 11:24:42;;;;;;;11.82;6.50;;;;;;;;;;5043347;28;20125;-62
2022/10/17 11:27:08;;;;;;;12.80;6.88;;;;;;;;;;5035123;28;20037;-62
2022/10/17 11:29:37;;;;;;;11.52;6.68;;;;;;;;;;5045955;28;20052;-62
2022/10/17 11:32:11;;;;;;;15.05;6.28;;;;;;;;;;5045283;28;20041;-62
2022/10/17 11:34:48;;;;;;;11.05;6.43;;;;;;;;;;5039244;28;20116;-62
2022/10/17 11:37:19;;;;;;;10.70;6.20;;;;;;;;;;5034600;28;20041;-62
2022/10/17 11:39:57;;;;;;;10.27;6.47;;;;;;;;;;5047564;28;20025;-62
2022/10/17 11:42:29;;;;;;;11.10;6.47;;;;;;;;;;5045145;28;20453;-62
2022/10/17 11:45:02;;;;;;;10.30;5.72;;;;;;;;;;5045614;28;20033;-62
2022/10/17 11:47:41;;;;;;;11.48;5.55;;;;;;;;;;5045717;28;20045;-62
2022/10/17 11:50:25;;;;;;;10.95;5.63;;;;;;;;;;5044447;28;20033;-62
2022/10/17 11:53:00;;;;;;;9.23;5.22;;;;;;;;;;5044068;28;20032;-62
2022/10/17 11:55:28;;;;;;;9.27;5.03;;;;;;;;;;5042777;28;20028;-62
2022/10/17 11:58:12;;;;;;;8.93;5.25;;;;;;;;;;5045449;28;20102;-62
2022/10/17 12:00:59;;;;;;;10.75;6.72;;;;;;;;;;5043513;28;20017;-62
2022/10/17 12:03:34;;;;;;;11.35;6.50;;;;;;;;;;5044850;28;20060;-63
2022/10/17 12:06:14;;;;;;;12.13;6.15;;;;;;;;;;5044093;28;20029;-62
2022/10/17 12:08:48;;;;;;;11.57;6.10;;;;;;;;;;5045587;28;20039;-62
2022/10/17 12:11:27;;;;;;;9.50;6.40;;;;;;;;;;5042473;28;20033;-62
2022/10/17 12:13:55;;;;;;;11.10;6.40;;;;;;;;;;5023029;28;20041;-62
2022/10/17 12:16:20;;;;;;;10.23;6.07;;;;;;;;;;5026570;28;20041;-61
2022/10/17 12:18:47;;;;;;;12.10;6.03;;;;;;;;;;5028681;28;20067;-62
2022/10/17 12:21:12;;;;;;;10.68;6.07;;;;;;;;;;5028713;28;20108;-62
2022/10/17 12:23:39;;;;;;;14.18;5.95;;;;;;;;;;5029077;28;20128;-62
2022/10/17 12:26:08;;;;;;;9.73;5.70;;;;;;;;;;5035442;28;20048;-62
2022/10/17 12:28:36;;;;;;;14.10;6.07;;;;;;;;;;5034317;28;20121;-62
2022/10/17 12:31:16;;;;;;;11.50;6.28;;;;;;;;;;5027080;28;20022;-61
2022/10/17 12:33:48;;;;;;;9.93;6.03;;;;;;;;;;5028211;28;20013;-62
2022/10/17 12:36:26;;;;;;;10.65;5.78;;;;;;;;;;5027986;28;20053;-62
2022/10/17 12:39:00;;;;;;;13.57;6.15;;;;;;;;;;5039697;28;20040;-62
2022/10/17 12:41:37;;;;;;;10.95;5.88;;;;;;;;;;5027683;28;20167;-62
2022/10/17 12:44:12;;;;;;;8.15;5.05;;;;;;;;;;5027499;28;20053;-62
2022/10/17 12:46:57;;;;;;;12.23;5.50;;;;;;;;;;5026654;28;20124;-62
2022/10/17 12:49:45;;;;;;;8.30;4.55;;;;;;;;;;5027291;28;20603;-62
2022/10/17 12:52:22;;;;;;;7.38;4.00;;;;;;;;;;5027251;28;20035;-62
2022/10/17 12:54:58;;;;;;;7.28;3.55;;;;;;;;;;5031629;28;20029;-62
2022/10/17 12:57:54;;;;;;;10.27;4.10;;;;;;;;;;5061698;28;20098;-62
2022/10/17 13:00:19;;;;;;;10.27;4.65;;;;;;;;;;5058814;28;20055;-62
2022/10/17 13:02:46;;;;;;;8.57;3.90;;;;;;;;;;5032169;28;20033;-62
2022/10/17 13:05:28;;;;;;;6.57;4.38;;;;;;;;;;5034580;28;20029;-62
2022/10/17 13:07:55;;;;;;;6.40;3.67;;;;;;;;;;5028123;28;20037;-62
2022/10/17 13:10:29;;;;;;;6.95;4.10;;;;;;;;;;5027971;28;20091;-62
2022/10/17 13:13:20;;;;;;;5.78;3.47;;;;;;;;;;5033138;28;20017;-62
2022/10/17 13:15:47;;;;;;;8.15;3.70;;;;;;;;;;5028275;28;20744;-62
2022/10/17 13:18:22;;;;;;;6.55;3.72;;;;;;;;;;5028026;28;20041;-62
2022/10/17 13:21:14;;;;;;;5.07;2.80;;;;;;;;;;5026532;28;20059;-62
2022/10/17 13:23:40;;;;;;;5.38;2.95;;;;;;;;;;5026040;28;20489;-62
2022/10/17 13:26:16;;;;;;;4.28;3.08;;;;;;;;;;5027388;28;20113;-62
2022/10/17 13:28:42;;;;;;;4.40;2.90;;;;;;;;;;5027321;28;20046;-62
2022/10/17 13:31:28;;;;;;;4.03;2.63;;;;;;;;;;5027878;28;20030;-62
2022/10/17 13:33:59;;;;;;;4.80;2.55;;;;;;;;;;5026662;28;20410;-62
2022/10/17 13:36:26;;;;;;;4.07;2.40;;;;;;;;;;5026502;28;20074;-62
2022/10/17 13:38:51;;;;;;;2.95;2.08;;;;;;;;;;5031047;28;20032;-62
2022/10/17 13:41:25;;;;;;;3.38;2.10;;;;;;;;;;5046905;28;20045;-62
2022/10/17 13:43:51;;;;;;;5.28;2.50;;;;;;;;;;5045780;28;20052;-61
2022/10/17 13:46:27;;;;;;;4.63;2.53;;;;;;;;;;5047442;28;20033;-62
2022/10/17 13:48:52;;;;;;;3.63;2.92;;;;;;;;;;5047827;28;20032;-62
2022/10/17 13:51:18;;;;;;;5.57;2.88;;;;;;;;;;5046952;28;20029;-62
2022/10/17 13:53:43;;;;;;;4.80;2.45;;;;;;;;;;5046311;28;20045;-62
2022/10/17 13:56:11;;;;;;;3.45;2.22;;;;;;;;;;5045683;28;20116;-62
2022/10/17 13:58:42;;;;;;;4.50;2.42;;;;;;;;;;5046220;28;20040;-62
2022/10/17 14:01:09;;;;;;;3.95;2.10;;;;;;;;;;5044074;28;20021;-62
2022/10/17 14:03:37;;;;;;;5.45;2.33;;;;;;;;;;5038717;28;20021;-62
2022/10/17 14:06:05;;;;;;;4.13;2.13;;;;;;;;;;5038741;28;20124;-62
2022/10/17 14:08:33;;;;;;;4.93;2.30;;;;;;;;;;5039392;28;20041;-62
2022/10/17 14:10:59;;;;;;;3.70;2.08;;;;;;;;;;5038607;28;20737;-62
2022/10/17 14:13:27;;;;;;;3.65;1.90;;;;;;;;;;5045891;28;20496;-62
2022/10/17 14:15:55;;;;;;;6.28;2.15;;;;;;;;;;5045441;28;20402;-62
2022/10/17 14:18:26;;;;;;;2.33;1.80;;;;;;;;;;5043694;28;20478;-62
2022/10/17 14:20:52;;;;;;;3.03;1.90;;;;;;;;;;5046256;28;20094;-62
2022/10/17 14:23:39;;;;;;;4.85;2.33;;;;;;;;;;5046035;28;20045;-62
2022/10/17 14:26:18;;;;;;;3.38;1.90;;;;;;;;;;5036876;28;20045;-62
2022/10/17 14:28:45;;;;;;;2.70;1.83;;;;;;;;;;5030728;28;20033;-62
2022/10/17 14:31:19;;;;;;;4.72;2.30;;;;;;;;;;5046673;28;20029;-62
2022/10/17 14:33:46;;;;;;;2.13;1.73;;;;;;;;;;5045327;28;20067;-62
2022/10/17 14:36:12;;;;;;;3.40;2.10;;;;;;;;;;5046916;28;20033;-62
2022/10/17 14:38:38;;;;;;;5.13;2.78;;;;;;;;;;5045967;28;20516;-62
2022/10/17 14:41:31;;;;;;;2.85;2.35;;;;;;;;;;5046516;28;20109;-62
2022/10/17 14:43:59;;;;;;;2.97;2.33;;;;;;;;;;5045177;28;20099;-62
2022/10/17 14:46:26;;;;;;;3.78;2.10;;;;;;;;;;5045558;28;20107;-62
2022/10/17 14:49:01;;;;;;;3.53;2.10;;;;;;;;;;5045703;28;20017;-63
2022/10/17 14:51:26;;;;;;;3.40;2.03;;;;;;;;;;5045635;28;20048;-63
2022/10/17 14:54:18;;;;;;;4.13;2.30;;;;;;;;;;5046480;28;20029;-62
2022/10/17 14:56:49;;;;;;;6.10;2.60;;;;;;;;;;5046798;28;20033;-62